Tiempo atmosférico en la estación meteorológica de Fuente De Piedra, Málaga (423 m.)



Fecha
DESCASC
Temp. máxima en grados centígrados (hora)
DESCASC
Temp. mínima en grados centígrados (hora)
DESCASC
Temp. media en grados centígrados
DESCASC
Racha de viento máxima en m/sg (hora)
DESCASC
Velocidad máxima media en intervalos de 10 minutos(hora)
DESCASC
Precipitaciones diarias en mm
DESCASC
Precipitaciones de 00:00 a 06:00 en mm
DESCASC
Precipitaciones de 06:00 a 12:00 en mm
DESCASC
Precipitaciones de 12:00 a 18:00 en mm
DESCASC
Precipitaciones de 18:00 a 24:00 en mm
DESCASC
19-09-2019 30.1 (16:50) 14.9 (08:10) 22.5 8.33 (16:40) 5.83 (19:10) 0 0 0 0 0
18-09-2019 28 (16:50) 15.5 (08:20) 21.8 5.28 (17:10) 3.33 (14:10) 0 0 0 0 0
17-09-2019 26.4 (17:50) 18.1 (00:00) 22.3 10.28 (12:50) 7.22 (13:40) 1.4 0 0 1.4 0
16-09-2019 29.7 (17:40) 17.9 (00:00) 23.8 7.5 (19:20) 5.28 (19:20) 0 0 0 0 0
15-09-2019 27 (18:20) 19.6 (00:00) 23.3 7.5 (00:40) 4.44 (00:30) 18.4 0 18.4 0 0
14-09-2019 24.3 (18:40) 15.5 (00:00) 19.9 8.89 (11:20) 5.83 (11:20) 30.2 5.6 22.4 2.2 0
13-09-2019 26.2 (14:40) 16 (00:00) 21.1 10.28 (17:40) 6.11 (17:10) 3.4 0 0 1.4 2
12-09-2019 25.4 (17:50) 15.5 (00:00) 20.4 9.17 (16:10) 5.56 (16:10) 0 0 0 0 0
11-09-2019 25.1 (15:50) 12.3 (00:00) 18.7 11.67 (10:40) 7.5 (18:20) 0 0 0 0 0
10-09-2019 25.4 (17:50) 16.4 (08:30) 20.9 13.06 (15:40) 8.61 (16:40) 0 0 0 0 0
09-09-2019 30.1 (16:30) 16.7 (07:50) 23.4 8.61 (17:20) 5.56 (17:20) 0 0 0 0 0
08-09-2019 28.1 (16:20) 18.2 (00:00) 23.2 13.33 (19:00) 7.5 (00:30) 5.4 1.2 0 0 4.2
07-09-2019 29.1 (14:30) 20.5 (00:00) 24.8 13.61 (14:20) 9.72 (14:40) 0 0 0 0 0
06-09-2019 29.9 (16:10) 21.1 (00:00) 25.5 13.89 (12:00) 9.72 (13:00) 0 0 0 0 0
05-09-2019 34 (16:00) 19.5 (00:00) 26.8 11.94 (18:40) 7.5 (18:40) 0.8 0 0 0.6 0.2
04-09-2019 33.9 (18:20) 20.1 (00:00) 27 8.06 (13:00) 5.83 (20:30) 0 0 0 0 0
03-09-2019 32.7 (15:30) 20.8 (00:00) 26.8 11.39 (19:30) 8.06 (19:30) 0 0 0 0 0
02-09-2019 32.7 (13:00) 17.5 (00:00) 25.1 15 (17:10) 10.28 (16:50) 0 0 0 0 0
01-09-2019 36.2 (16:10) 18.1 (00:00) 27.2 9.44 (17:40) 6.67 (18:40) 0 0 0 0 0
31-08-2019 34.8 (16:30) 19.1 (00:00) 26.9 8.61 (11:10) 6.39 (20:20) 0 0 0 0 0
30-08-2019 33.2 (16:20) 17.4 (00:00) 25.3 12.5 (15:30) 8.61 (17:20) 0 0 0 0 0
29-08-2019 31.6 (16:10) 21 (00:00) 26.3 13.89 (18:40) 9.44 (18:00) 0 0 0 0 0
28-08-2019 33.5 (16:00) 16.6 (00:00) 25.1 8.61 (20:20) 6.11 (20:20) 0 0 0 0 0
27-08-2019 29.2 (19:00) 17.8 (00:00) 23.5 6.39 (15:30) 3.61 (19:20) 0 0 0 0 0
26-08-2019 29.5 (16:20) 20.1 (00:00) 24.8 14.44 (20:20) 9.17 (01:40) 10.2 0 0 0 10.2
25-08-2019 28.9 (15:10) 20.8 (00:00) 24.8 13.89 (16:00) 10.28 (15:50) 0 0 0 0 0
24-08-2019 30.7 (16:10) 19.2 (00:00) 25 11.39 (15:50) 7.78 (17:30) 0 0 0 0 0
23-08-2019 31 (14:40) 20.2 (00:00) 25.6 13.61 (17:40) 10 (16:30) 0 0 0 0 0
22-08-2019 29.9 (14:50) 21.3 (00:00) 25.6 13.61 (16:10) 9.44 (16:10) 0 0 0 0 0
21-08-2019 30.9 (16:00) 22.8 (00:00) 26.8 11.94 (14:00) 8.06 (19:40) 0 0 0 0 0

Gráficas

Temp. máximas Temp. mínimas Temp. medias Precipitaciones Rachas de viento máximas Velocidades máximas media en intervalos de 10 minutos

Datos horarios

Fecha y hora oficial Temperatura (ºC) Velocidad del viento (km/h) Dirección del viento Racha (km/h) Dirección de racha Precipitación (mm) Presión (hPa) Tendencia (hPa) Humedad (%)
2019-09-19 23:00:00 21.7 7 Sudoeste 12 Sudoeste 0 -- -- 66
2019-09-19 22:00:00 22.5 0 Calma 13 Sudoeste 0 -- -- 61
2019-09-19 21:00:00 23.9 10 Sur 22 Sur 0 -- -- 55
2019-09-19 20:00:00 25.6 16 Sur 27 Sur 0 -- -- 48
2019-09-19 19:00:00 27.5 21 Sur 28 Sur 0 -- -- 44
2019-09-19 18:00:00 29.1 13 Sur 27 Sur 0 -- -- 41
2019-09-19 17:00:00 29.8 6 Sudeste 30 Sudeste 0 -- -- 38
2019-09-19 16:00:00 29.5 11 Sur 26 Sur 0 -- -- 38
2019-09-19 15:00:00 29.3 14 Sur 25 Sur 0 -- -- 40
2019-09-19 14:00:00 27.1 8 Sudoeste 14 Sudoeste 0 -- -- 50
2019-09-19 13:00:00 25.8 5 Oeste 11 Oeste 0 -- -- 57
2019-09-19 12:00:00 22.9 4 Oeste 8 Oeste 0 -- -- 68
2019-09-19 11:00:00 20.1 3 Sudoeste 5 Oeste 0 -- -- 76
2019-09-19 10:00:00 17.7 3 Sudoeste 5 Sur 0 -- -- 86
2019-09-19 09:00:00 15.8 0 Calma 4 Sur 0 -- -- 93
2019-09-19 08:00:00 15 3 Sur 4 Sur 0 -- -- 91
2019-09-19 07:00:00 15.4 0 Calma 6 Norte 0 -- -- 90
2019-09-19 06:00:00 15.9 5 Norte 9 Norte 0 -- -- 90
2019-09-19 05:00:00 16.3 6 Norte 13 Norte 0 -- -- 88
2019-09-19 04:00:00 16.8 6 Norte 11 Norte 0 -- -- 84
2019-09-19 03:00:00 16.9 4 Norte 8 Norte 0 -- -- 86
2019-09-19 02:00:00 17.5 4 Nordeste 7 Norte 0 -- -- 84
2019-09-19 01:00:00 19.2 4 Sur 8 Sudoeste 0 -- -- 73
2019-09-19 00:00:00 20.4 5 Sur 6 Sudeste 0 -- -- 71
2019-09-18 23:00:00 21.2 2 Este 8 Norte 0 -- -- 68
2019-09-18 22:00:00 22.1 6 Norte 8 Norte 0 -- -- 64
2019-09-18 21:00:00 23.1 5 Noroeste 10 Noroeste 0 -- -- 62
2019-09-18 20:00:00 25.9 7 Noroeste 15 Noroeste 0 -- -- 50
2019-09-18 19:00:00 27.4 11 Norte 17 Noroeste 0 -- -- 47
2019-09-18 18:00:00 27.9 10 Noroeste 19 Noroeste 0 -- -- 48
2019-09-18 17:00:00 27.9 10 Noroeste 18 Noroeste 0 -- -- 50
2019-09-18 16:00:00 27.6 8 Norte 17 Norte 0 -- -- 49
2019-09-18 15:00:00 27 5 Noroeste 19 Noroeste 0 -- -- 51
2019-09-18 14:00:00 26.3 8 Norte 17 Norte 0 -- -- 62
2019-09-18 13:00:00 25.2 4 Sudeste 15 Nordeste 0 -- -- 64
2019-09-18 12:00:00 23.7 8 Norte 16 Nordeste 0 -- -- 71
2019-09-18 11:00:00 20.8 3 Noroeste 6 Oeste 0 -- -- 84
2019-09-18 10:00:00 18.2 3 Sudoeste 5 Sudoeste 0 -- -- 93
2019-09-18 09:00:00 16.3 0 Calma 4 Sudoeste 0 -- -- 95
2019-09-18 08:00:00 15.7 4 Sudeste 8 Norte 0 -- -- 93
2019-09-18 07:00:00 16.5 5 Este 10 Este 0 -- -- 94
2019-09-18 06:00:00 16.6 5 Norte 9 Este 0 -- -- 93
2019-09-18 05:00:00 17.3 3 Sudeste 6 Sudeste 0 -- -- 92
2019-09-18 04:00:00 17.6 3 Nordeste 6 Norte 0 -- -- 92
2019-09-18 03:00:00 18 4 Nordeste 9 Nordeste 0 -- -- 89
2019-09-18 02:00:00 18.8 0 Calma 6 Norte 0 -- -- 88
2019-09-18 01:00:00 19.1 5 Sur 15 Sur 0 -- -- 87
2019-09-18 00:00:00 19.6 5 Oeste 8 Oeste 0 -- -- 83
2019-09-17 23:00:00 20.5 4 Sudoeste 6 Sur 0 -- -- 78
2019-09-17 22:00:00 21.5 5 Sudeste 10 Sur 0 -- -- 71
2019-09-17 21:00:00 22.8 8 Sur 27 Sur 0 -- -- 68
2019-09-15 18:00:00 -- -- -- -- -- -- -- -- --
2019-09-15 17:00:00 -- -- -- -- -- -- -- -- --
2019-09-15 16:00:00 26.9 5 Noroeste 17 Noroeste 0 -- -- 60
2019-09-15 15:00:00 25.3 11 Noroeste 19 Noroeste 0 -- -- 69
2019-09-15 14:00:00 24.4 4 Oeste 14 Sudoeste 0 -- -- 74
2019-09-15 13:00:00 22.5 6 Norte 12 Noroeste 0 -- -- 85
2019-09-15 12:00:00 20.7 5 Noroeste 9 Noroeste 0 -- -- 94
2019-09-15 11:00:00 19.9 5 Nordeste 12 Sudeste 12.4 -- -- 95
2019-09-15 10:00:00 20 3 Norte 5 Norte 5.8 -- -- 94
2019-09-15 09:00:00 19.9 2 Norte 6 Nordeste 0.2 -- -- 94
2019-09-15 08:00:00 19.6 0 Calma 5 Oeste 0 -- -- 93
2019-09-15 07:00:00 19.8 5 Oeste 8 Sudoeste 0 -- -- 92
2019-09-15 06:00:00 20.1 2 Nordeste 8 Este 0 -- -- 92
2019-09-15 05:00:00 20.1 5 Sudeste 9 Sudeste 0 -- -- 92
2019-09-15 04:00:00 20 4 Oeste 6 Sudoeste 0 -- -- 92
2019-09-15 03:00:00 20 8 Sur 18 Sur 0 -- -- 90
2019-09-15 02:00:00 20.6 13 Sur 20 Sur 0 -- -- 88
2019-09-15 01:00:00 21 12 Sur 27 Sur 0 -- -- 86
2019-09-15 00:00:00 21 12 Sur 18 Sur 0 -- -- 85
2019-09-14 23:00:00 21 5 Sudoeste 14 Sur 0 -- -- 84
2019-09-14 22:00:00 21.4 5 Sudoeste 11 Oeste 0 -- -- 82
2019-09-14 21:00:00 21.4 11 Sur 26 Sur 0 -- -- 83
2019-09-14 20:00:00 22.7 14 Sur 22 Sur 0 -- -- 78
2019-09-14 19:00:00 24 8 Sur 17 Sur 0 -- -- 73
2019-09-14 18:00:00 24 3 Sudeste 11 Nordeste 0 -- -- 68
2019-09-14 17:00:00 23.9 4 Norte 14 Norte 0 -- -- 68
2019-09-14 16:00:00 22.7 9 Norte 19 Norte 0 -- -- 75
2019-09-14 15:00:00 22 4 Nordeste 12 Este 0 -- -- 74
2019-09-14 14:00:00 19.8 4 Este 13 Este 0 -- -- 82
2019-09-14 13:00:00 17.4 2 Norte 27 Este 2.2 -- -- 92
2019-09-14 12:00:00 16.5 12 Sudeste 32 Sudeste 0.4 -- -- 92
2019-09-14 11:00:00 15.8 15 Sudeste 27 Sudeste 1.8 -- -- 94
2019-09-14 10:00:00 15.6 6 Sudeste 22 Sur 7 -- -- 94
2019-09-14 09:00:00 16 14 Sur 24 Este 6.4 -- -- 92
2019-09-14 08:00:00 16.2 10 Sur 26 Sudeste 5.2 -- -- 93
2019-09-14 07:00:00 16.4 9 Este 15 Este 1.6 -- -- 94
2019-09-14 06:00:00 -- -- -- -- -- -- -- -- --
2019-09-14 05:00:00 -- -- -- -- -- -- -- -- --
2019-09-14 04:00:00 16 9 Nordeste 13 Este 2.2 -- -- 90
2019-09-14 03:00:00 16 6 Sudeste 10 Sudeste 0 -- -- 87
2019-09-14 02:00:00 15.8 5 Norte 12 Sur 0 -- -- 86
2019-09-14 01:00:00 16 6 Sur 8 Sur 0 -- -- 87
2019-09-14 00:00:00 16.7 0 Calma 6 Norte 0 -- -- 84
2019-09-13 23:00:00 16.4 4 Nordeste 9 Noroeste 0 -- -- 84
2019-09-13 22:00:00 17.1 5 Noroeste 10 Oeste 0 -- -- 75
2019-09-13 21:00:00 18 8 Nordeste 13 Nordeste 0 -- -- 70
2019-09-13 20:00:00 18 9 Nordeste 13 Nordeste 0 -- -- 77
2019-09-13 19:00:00 16.6 3 Sudeste 30 Noroeste 2 -- -- 86
2019-09-13 18:00:00 20.5 8 Noroeste 37 Nordeste 1.4 -- -- 61
2019-09-13 17:00:00 24.3 19 Sur 28 Sur 0 -- -- 54
2019-09-13 16:00:00 23.5 18 Sur 29 Sur 0 -- -- 52
2019-09-13 15:00:00 25.6 14 Este 28 Nordeste 0 -- -- 38
2019-09-13 14:00:00 25 13 Nordeste 23 Este 0 -- -- 41
2019-09-13 13:00:00 25.1 14 Nordeste 21 Norte 0 -- -- 41
2019-09-13 12:00:00 24.6 6 Nordeste 18 Sudeste 0 -- -- 41
2019-09-13 11:00:00 22.8 10 Este 21 Este 0 -- -- 49
2019-09-13 10:00:00 19.6 14 Este 22 Este 0 -- -- 62
2019-09-13 09:00:00 17.7 13 Este 34 Este 0 -- -- 69
2019-09-13 08:00:00 18.1 16 Este 31 Este 0 -- -- 67
2019-09-13 07:00:00 16.7 4 Nordeste 7 Sur 0 -- -- 81
2019-09-13 06:00:00 17.4 2 Oeste 6 Sudeste 0 -- -- 75
2019-09-13 05:00:00 18.2 3 Este 10 Este 0 -- -- 72
2019-09-13 04:00:00 18.3 3 Noroeste 8 Noroeste 0 -- -- 73
2019-09-13 03:00:00 17.9 5 Norte 16 Norte 0 -- -- 79
2019-09-13 02:00:00 18.2 9 Norte 17 Norte 0 -- -- 77
2019-09-13 01:00:00 18.3 10 Nordeste 21 Norte 0 -- -- 78
2019-09-13 00:00:00 18.3 11 Nordeste 22 Nordeste 0 -- -- 79
2019-09-12 23:00:00 19.9 14 Nordeste 22 Norte 0 -- -- 68
2019-09-12 22:00:00 20.9 2 Sudeste 15 Sur 0 -- -- 55
2019-09-12 21:00:00 21.9 9 Sudeste 24 Noroeste 0 -- -- 51
2019-09-12 20:00:00 23.7 4 Sur 15 Nordeste 0 -- -- 45
2019-09-12 19:00:00 25.3 6 Este 23 Nordeste 0 -- -- 39
2019-09-12 18:00:00 25.1 14 Nordeste 26 Este 0 -- -- 37
2019-09-12 17:00:00 24.9 15 Este 33 Nordeste 0 -- -- 39
2019-09-12 16:00:00 23.9 15 Nordeste 30 Nordeste 0 -- -- 41
2019-09-12 15:00:00 23.6 15 Este 29 Este 0 -- -- 42
2019-09-12 14:00:00 24.1 11 Nordeste 24 Este 0 -- -- 40
2019-09-12 13:00:00 22.7 10 Nordeste 27 Este 0 -- -- 43
2019-09-12 12:00:00 21.2 18 Este 27 Este 0 -- -- 47
2019-09-12 11:00:00 19.2 10 Este 19 Este 0 -- -- 55
2019-09-12 10:00:00 18 7 Norte 9 Norte 0 -- -- 59
2019-09-12 09:00:00 16.4 3 Este 6 Norte 0 -- -- 63
2019-09-12 08:00:00 16.4 2 Noroeste 15 Norte 0 -- -- 60
2019-09-12 07:00:00 16.3 9 Norte 15 Nordeste 0 -- -- 62
2019-09-12 06:00:00 15.6 7 Noroeste 19 Este 0 -- -- 63
2019-09-12 05:00:00 16 10 Nordeste 15 Nordeste 0 -- -- 61
2019-09-12 04:00:00 16 3 Sudoeste 6 Oeste 0 -- -- 69
2019-09-12 03:00:00 17 3 Este 17 Este 0 -- -- 56
2019-09-12 02:00:00 18.6 14 Este 26 Este 0 -- -- 50
2019-09-12 01:00:00 17.9 10 Nordeste 22 Norte 0 -- -- 50
2019-09-12 00:00:00 20 16 Norte 34 Nordeste 0 -- -- 43
2019-09-11 23:00:00 22 20 Nordeste 33 Nordeste 0 -- -- 39
2019-09-11 22:00:00 22.4 19 Nordeste 32 Nordeste 0 -- -- 39
2019-09-11 21:00:00 23.1 15 Nordeste 26 Nordeste 0 -- -- 36
2019-09-11 20:00:00 23.7 21 Nordeste 36 Nordeste 0 -- -- 34
2019-09-11 19:00:00 23.9 24 Nordeste 40 Nordeste 0 -- -- 34
2019-09-11 18:00:00 24.4 21 Nordeste 39 Nordeste 0 -- -- 34
2019-09-11 17:00:00 24.3 21 Nordeste 37 Norte 0 -- -- 34
2019-09-11 16:00:00 24.4 24 Norte 39 Nordeste 0 -- -- 33
2019-09-11 15:00:00 24.1 25 Nordeste 41 Norte 0 -- -- 34
2019-09-11 14:00:00 23.2 19 Nordeste 34 Norte 0 -- -- 35
2019-09-11 13:00:00 22 19 Norte 33 Nordeste 0 -- -- 37
2019-09-11 12:00:00 20.6 19 Nordeste 33 Norte 0 -- -- 40
2019-09-11 11:00:00 19.3 26 Nordeste 42 Nordeste 0 -- -- 42
2019-09-11 10:00:00 17.8 17 Nordeste 26 Nordeste 0 -- -- 46
2019-09-11 09:00:00 14.5 8 Nordeste 14 Nordeste 0 -- -- 58
2019-09-11 08:00:00 12.3 9 Norte 15 Norte 0 -- -- 64
2019-09-11 07:00:00 13 4 Noroeste 12 Norte 0 -- -- 61
2019-09-11 06:00:00 13.7 10 Norte 15 Norte 0 -- -- 57
2019-09-11 05:00:00 13.7 10 Norte 13 Norte 0 -- -- 56
2019-09-11 04:00:00 14.4 9 Nordeste 15 Norte 0 -- -- 51
2019-09-11 03:00:00 15.3 8 Norte 17 Norte 0 -- -- 45
2019-09-11 02:00:00 16.3 12 Norte 15 Norte 0 -- -- 40
2019-09-11 01:00:00 16.7 11 Norte 15 Norte 0 -- -- 40
2019-09-11 00:00:00 17.5 11 Norte 17 Norte 0 -- -- 40
2019-09-10 23:00:00 19.7 15 Norte 22 Norte 0 -- -- 33
2019-09-10 22:00:00 20 14 Noroeste 17 Noroeste 0 -- -- 35
2019-09-10 21:00:00 21.6 10 Norte 28 Noroeste 0 -- -- 32
2019-09-10 20:00:00 23.9 19 Norte 36 Noroeste 0 -- -- 28
2019-09-10 19:00:00 25 28 Noroeste 41 Noroeste 0 -- -- 26
2019-09-10 18:00:00 25.4 22 Noroeste 41 Oeste 0 -- -- 27
2019-09-10 17:00:00 24 25 Norte 44 Noroeste 0 -- -- 34
2019-09-10 16:00:00 23.5 23 Noroeste 47 Noroeste 0 -- -- 40
2019-09-10 15:00:00 22.7 23 Noroeste 41 Noroeste 0 -- -- 42
2019-09-10 14:00:00 21.6 26 Noroeste 41 Noroeste 0 -- -- 45
2019-09-10 13:00:00 20.4 24 Noroeste 40 Noroeste 0 -- -- 50
2019-09-10 12:00:00 19.4 19 Noroeste 31 Oeste 0 -- -- 51
2019-09-10 11:00:00 18.4 24 Noroeste 37 Noroeste 0 -- -- 53
2019-09-10 10:00:00 17.9 4 Norte 13 Noroeste 0 -- -- 52
2019-09-10 09:00:00 17.2 2 Noroeste 20 Oeste 0 -- -- 57
2019-09-10 08:00:00 16.9 15 Oeste 24 Oeste 0 -- -- 61
2019-09-10 07:00:00 17.3 13 Oeste 23 Oeste 0 -- -- 60
2019-09-10 06:00:00 17.8 10 Oeste 21 Oeste 0 -- -- 62
2019-09-10 05:00:00 19.2 12 Oeste 19 Oeste 0 -- -- 58
2019-09-10 04:00:00 19 6 Sudoeste 9 Sur 0 -- -- 62
2019-09-10 03:00:00 20.7 4 Sur 13 Oeste 0 -- -- 57
2019-09-10 02:00:00 21.6 9 Oeste 22 Oeste 0 -- -- 55
2019-09-10 01:00:00 22.5 10 Sudoeste 17 Sudoeste 0 -- -- 52
2019-09-10 00:00:00 23.2 6 Sur 30 Sudoeste 0 -- -- 50
2019-09-09 23:00:00 24.4 12 Oeste 19 Sudoeste 0 -- -- 46
2019-09-09 22:00:00 25.1 9 Oeste 17 Sudoeste 0 -- -- 46
2019-09-09 21:00:00 26.7 12 Oeste 24 Oeste 0 -- -- 37
2019-09-09 20:00:00 28.4 14 Oeste 29 Oeste 0 -- -- 34
2019-09-09 19:00:00 29.6 17 Oeste 30 Oeste 0 -- -- 31
2019-09-09 18:00:00 29.6 17 Noroeste 31 Noroeste 0 -- -- 33
2019-09-09 17:00:00 29.7 17 Noroeste 26 Noroeste 0 -- -- 32
2019-09-09 16:00:00 29.9 11 Norte 26 Noroeste 0 -- -- 33
2019-09-09 15:00:00 29.1 12 Noroeste 19 Noroeste 0 -- -- 33
2019-09-09 14:00:00 27.4 6 Norte 14 Oeste 0 -- -- 45
2019-09-09 13:00:00 25.3 6 Oeste 10 Noroeste 0 -- -- 60
2019-09-09 12:00:00 24.2 4 Oeste 8 Oeste 0 -- -- 61
2019-09-09 11:00:00 23 2 Sur 5 Sur 0 -- -- 64
2019-09-09 10:00:00 19.6 0 Calma 4 Sur 0 -- -- 76
2019-09-09 09:00:00 17.4 2 Sudoeste 5 Oeste 0 -- -- 85
2019-09-09 08:00:00 16.8 3 Oeste 7 Noroeste 0 -- -- 90
2019-09-09 07:00:00 17 0 Calma 5 Sudoeste 0 -- -- 90
2019-09-09 06:00:00 17.2 0 Calma 6 Sudeste 0 -- -- 87
2019-09-09 05:00:00 17.6 0 Calma 5 Oeste 0 -- -- 88
2019-09-09 04:00:00 17.9 0 Calma 5 Sudoeste 0 -- -- 88
2019-09-09 03:00:00 18.2 0 Calma 6 Norte 0 -- -- 88
2019-09-09 02:00:00 18.3 5 Sudeste 9 Noroeste 0 -- -- 85
2019-09-09 01:00:00 18.9 5 Norte 10 Noroeste 0 -- -- 85
2019-09-09 00:00:00 19.2 3 Nordeste 8 Norte 0 -- -- 84
2019-09-08 23:00:00 19.1 0 Calma 15 Sudoeste 0 -- -- 79
2019-09-08 22:00:00 19.5 10 Sudoeste 17 Sudoeste 0 -- -- 77
2019-09-08 21:00:00 19.1 10 Sur 21 Nordeste 0.2 -- -- 85
2019-09-08 20:00:00 19.4 6 Nordeste 21 Norte 2.8 -- -- 79
2019-09-08 19:00:00 21.6 26 Nordeste 48 Norte 1.2 -- -- 60
2019-09-08 18:00:00 26.4 20 Sur 32 Sur 0 -- -- 49
2019-09-08 17:00:00 28 18 Sur 33 Sur 0 -- -- 45
2019-09-08 16:00:00 27.8 15 Sur 24 Sudeste 0 -- -- 45
2019-09-08 15:00:00 27.1 11 Sudoeste 27 Sur 0 -- -- 48
2019-09-08 14:00:00 26 15 Sur 27 Sur 0 -- -- 55
2019-09-08 13:00:00 25.1 8 Sudoeste 15 Sudoeste 0 -- -- 60
2019-09-08 12:00:00 23.4 5 Sudoeste 12 Sur 0 -- -- 63
2019-09-08 11:00:00 21.1 8 Sur 11 Sur 0 -- -- 81
2019-09-08 10:00:00 19.6 6 Sur 10 Sur 0 -- -- 89
2019-09-08 09:00:00 18.6 2 Nordeste 8 Sur 0 -- -- 91
2019-09-08 08:00:00 18.3 4 Sur 6 Sur 0 -- -- 90
2019-09-08 07:00:00 18.2 3 Oeste 9 Noroeste 0 -- -- 86
2019-09-08 06:00:00 18.7 4 Este 20 Norte 1.2 -- -- 82
2019-09-08 05:00:00 20.2 8 Este 17 Sudeste 0 -- -- 80
2019-09-08 04:00:00 20.8 8 Sur 19 Sur 0 -- -- 79
2019-09-08 03:00:00 20.9 9 Sudoeste 31 Sur 0 -- -- 79
2019-09-08 02:00:00 20.9 19 Sur 31 Sur 0 -- -- 80
2019-09-08 01:00:00 20.8 17 Sur 42 Sur 0 -- -- 79
2019-09-08 00:00:00 21.3 23 Sur 39 Sur 0 -- -- 78
2019-09-07 23:00:00 21.7 28 Sur 46 Sur 0 -- -- 77
2019-09-07 22:00:00 21.8 31 Sur 46 Sur 0 -- -- 74
2019-09-07 21:00:00 23.4 27 Sur 39 Sur 0 -- -- 63
2019-09-07 20:00:00 25.3 21 Sur 37 Sur 0 -- -- 50
2019-09-07 19:00:00 25.8 27 Sur 40 Sur 0 -- -- 52
2019-09-07 18:00:00 27.3 30 Sur 46 Sur 0 -- -- 45
2019-09-07 17:00:00 28 32 Sur 49 Sur 0 -- -- 40
2019-09-07 16:00:00 28 32 Sur 48 Sur 0 -- -- 42
2019-09-07 15:00:00 28.9 30 Sur 49 Sur 0 -- -- 40
2019-09-07 14:00:00 28.8 28 Sur 45 Sur 0 -- -- 40
2019-09-07 13:00:00 27.4 24 Sur 38 Sudeste 0 -- -- 49
2019-09-07 12:00:00 25.5 23 Sur 37 Sur 0 -- -- 59
2019-09-07 11:00:00 24.4 22 Sur 37 Sur 0 -- -- 64
2019-09-07 10:00:00 23.1 23 Sur 36 Sur 0 -- -- 68
2019-09-07 09:00:00 21.4 21 Sur 32 Sur 0 -- -- 78
2019-09-07 08:00:00 20.5 13 Sur 26 Sur 0 -- -- 80
2019-09-07 07:00:00 20.7 12 Sur 33 Sur 0 -- -- 78
2019-09-07 06:00:00 20.8 20 Sur 35 Sur 0 -- -- 78
2019-09-07 05:00:00 21 18 Sur 33 Sur 0 -- -- 77
2019-09-07 04:00:00 21.2 22 Sur 37 Sur 0 -- -- 76
2019-09-07 03:00:00 21.1 14 Sur 34 Sur 0 -- -- 76
2019-09-07 02:00:00 21.4 22 Sur 33 Sur 0 -- -- 72
2019-09-07 01:00:00 22.4 18 Sur 34 Sur 0 -- -- 59
2019-09-07 00:00:00 23.2 22 Sur 35 Sur 0 -- -- 59
2019-09-06 23:00:00 23.6 14 Sur 30 Sur 0 -- -- 53
2019-09-06 22:00:00 24.1 11 Sur 22 Sur 0 -- -- 39
2019-09-06 21:00:00 25.1 18 Sur 30 Sur 0 -- -- 38
2019-09-06 20:00:00 25.9 25 Sur 36 Sur 0 -- -- 37
2019-09-06 19:00:00 26.9 22 Sur 36 Sur 0 -- -- 36
2019-09-06 18:00:00 27.9 27 Sur 41 Sur 0 -- -- 35
2019-09-06 17:00:00 29.8 29 Sur 44 Sur 0 -- -- 33
2019-09-06 16:00:00 29.7 27 Sur 48 Sur 0 -- -- 37
2019-09-06 15:00:00 29.3 31 Sur 48 Sur 0 -- -- 41
2019-09-06 14:00:00 28.8 32 Sur 48 Sur 0 -- -- 44
2019-09-06 13:00:00 27.6 35 Sur 49 Sur 0 -- -- 49
2019-09-06 12:00:00 26.6 32 Sur 50 Sur 0 -- -- 53
2019-09-06 11:00:00 24.9 31 Sur 44 Sur 0 -- -- 66
2019-09-06 10:00:00 23.4 27 Sur 39 Sur 0 -- -- 73
2019-09-06 09:00:00 22 27 Sur 37 Sur 0 -- -- 80
2019-09-06 08:00:00 21.1 17 Sur 33 Sur 0 -- -- 84
2019-09-06 07:00:00 21.1 16 Sur 26 Sur 0 -- -- 84
2019-09-06 06:00:00 21.3 14 Sur 27 Sur 0 -- -- 80
2019-09-06 05:00:00 21.4 12 Sur 26 Sur 0 -- -- 78
2019-09-06 04:00:00 21.8 16 Sur 27 Sur 0 -- -- 74
2019-09-06 03:00:00 22 17 Sur 31 Sur 0 -- -- 71
2019-09-06 02:00:00 22.3 18 Sur 32 Sur 0 -- -- 68
2019-09-06 01:00:00 22.6 21 Sur 32 Sur 0 -- -- 66
2019-09-06 00:00:00 22.7 18 Sur 28 Sur 0 -- -- 67
2019-09-05 23:00:00 23.2 18 Sur 28 Sur 0 -- -- 67
2019-09-05 22:00:00 23.9 16 Sur 31 Sur 0 -- -- 62
2019-09-05 21:00:00 25 14 Sur 29 Sur 0 -- -- 62
2019-09-05 20:00:00 26.6 21 Sur 35 Sur 0 -- -- 58
2019-09-05 19:00:00 28.3 21 Sur 43 Sudeste 0.2 -- -- 53
2019-09-05 18:00:00 29.5 22 Sur 35 Sur 0.6 -- -- 53
2019-09-05 17:00:00 32.8 23 Sur 35 Sur 0 -- -- 39
2019-09-05 16:00:00 34 14 Sur 23 Sudoeste 0 -- -- 35
2019-09-05 15:00:00 33.3 7 Sudoeste 20 Sur 0 -- -- 36
2019-09-05 14:00:00 32.4 9 Sur 18 Sudoeste 0 -- -- 41
2019-09-05 13:00:00 30.8 9 Sudoeste 17 Sudoeste 0 -- -- 44
2019-09-05 12:00:00 29 6 Sudoeste 11 Sudoeste 0 -- -- 45
2019-09-05 11:00:00 25.7 5 Sudoeste 10 Sur 0 -- -- 57
2019-09-05 10:00:00 22.5 0 Calma 5 Sudeste 0 -- -- 68
2019-09-05 09:00:00 20.7 3 Sur 6 Sudoeste 0 -- -- 73
2019-09-05 08:00:00 19.7 3 Oeste 6 Sur 0 -- -- 74
2019-09-05 07:00:00 20.1 0 Calma 4 Nordeste 0 -- -- 74
2019-09-05 06:00:00 19.8 2 Noroeste 6 Nordeste 0 -- -- 73
2019-09-05 05:00:00 19.7 2 Oeste 6 Sur 0 -- -- 70
2019-09-05 04:00:00 20.5 3 Sudoeste 7 Sudeste 0 -- -- 67
2019-09-05 03:00:00 21.3 3 Sudeste 7 Norte 0 -- -- 69
2019-09-05 02:00:00 22.6 5 Sudoeste 9 Sudeste 0 -- -- 64
2019-09-05 01:00:00 22.8 6 Sur 13 Sur 0 -- -- 65
2019-09-05 00:00:00 23.9 2 Oeste 15 Sudoeste 0 -- -- 61
2019-09-04 23:00:00 24.9 9 Sur 15 Sudoeste 0 -- -- 59
2019-09-04 22:00:00 25.8 9 Sur 24 Sur 0 -- -- 56
2019-09-04 21:00:00 27.9 17 Sur 26 Sudeste 0 -- -- 49
2019-09-04 20:00:00 32.7 6 Sudoeste 14 Oeste 0 -- -- 30
2019-09-04 19:00:00 32.9 9 Sudoeste 21 Sudoeste 0 -- -- 35
2019-09-04 18:00:00 33.5 10 Sudoeste 19 Sudoeste 0 -- -- 34
2019-09-04 17:00:00 33.1 13 Sudoeste 22 Sudoeste 0 -- -- 32
2019-09-04 16:00:00 32.4 14 Sudoeste 21 Sudoeste 0 -- -- 31
2019-09-04 15:00:00 30.7 10 Sudoeste 19 Sudoeste 0 -- -- 39
2019-09-04 14:00:00 29.8 13 Sudoeste 28 Sur 0 -- -- 40
2019-09-04 13:00:00 27 18 Sur 29 Sur 0 -- -- 46
2019-09-04 12:00:00 25.6 15 Sur 22 Sur 0 -- -- 50
2019-09-04 11:00:00 23 5 Sur 12 Sudoeste 0 -- -- 63
2019-09-04 10:00:00 21.5 2 Sur 12 Sudoeste 0 -- -- 70
2019-09-04 09:00:00 20.3 8 Sudoeste 14 Sur 0 -- -- 72
2019-09-04 08:00:00 20.2 8 Sudoeste 14 Sudoeste 0 -- -- 70
2019-09-04 07:00:00 20.6 4 Oeste 9 Sudoeste 0 -- -- 69
2019-09-04 06:00:00 20.1 4 Sur 12 Sur 0 -- -- 71
2019-09-04 05:00:00 20.9 8 Sur 16 Sur 0 -- -- 69
2019-09-04 04:00:00 22.1 13 Sur 24 Sur 0 -- -- 60
2019-09-04 03:00:00 22 8 Sur 19 Sudoeste 0 -- -- 70
2019-09-04 02:00:00 22.5 13 Sur 23 Sur 0 -- -- 74
2019-09-04 01:00:00 23 9 Sur 20 Sur 0 -- -- 67
2019-09-04 00:00:00 23.4 14 Sudoeste 29 Sudoeste 0 -- -- 67
2019-09-03 23:00:00 24.1 11 Sudoeste 19 Sur 0 -- -- 61
2019-09-03 22:00:00 25.3 14 Sur 25 Sur 0 -- -- 57
2019-09-03 21:00:00 27.4 17 Sur 31 Sur 0 -- -- 43
2019-09-03 20:00:00 29.1 22 Sur 41 Sur 0 -- -- 40
2019-09-03 19:00:00 30.6 26 Sur 38 Sur 0 -- -- 34
2019-09-03 18:00:00 31.6 25 Sur 37 Sur 0 -- -- 32
2019-09-03 17:00:00 31.8 26 Sur 40 Sur 0 -- -- 32
2019-09-03 16:00:00 32.6 23 Sur 40 Sudoeste 0 -- -- 30
2019-09-03 15:00:00 32.5 21 Sur 40 Sur 0 -- -- 31
2019-09-03 14:00:00 31.9 23 Sur 36 Sur 0 -- -- 32
2019-09-03 13:00:00 30.9 22 Sur 35 Sur 0 -- -- 36
2019-09-03 12:00:00 29.6 21 Sur 35 Sur 0 -- -- 40
2019-09-03 11:00:00 27.9 17 Sudeste 28 Sudeste 0 -- -- 44
2019-09-03 10:00:00 25.4 15 Sur 27 Sur 0 -- -- 53
2019-09-03 09:00:00 22.1 13 Sudoeste 19 Sudoeste 0 -- -- 74
2019-09-03 08:00:00 20.8 15 Sudoeste 25 Sudoeste 0 -- -- 80
2019-09-03 07:00:00 21.3 14 Sudoeste 24 Sur 0 -- -- 75
2019-09-03 06:00:00 21.4 12 Sur 31 Sur 0 -- -- 74
2019-09-03 05:00:00 22.2 21 Sur 33 Sur 0 -- -- 68
2019-09-03 04:00:00 22.1 8 Sudoeste 19 Sur 0 -- -- 63
2019-09-03 03:00:00 21.7 9 Sudoeste 17 Sudoeste 0 -- -- 64
2019-09-03 02:00:00 21 6 Sur 13 Sudoeste 0 -- -- 65
2019-09-03 01:00:00 22.4 6 Sudoeste 10 Sudoeste 0 -- -- 62
2019-09-03 00:00:00 23.3 5 Sudoeste 24 Sur 0 -- -- 59
2019-09-02 23:00:00 24 14 Sur 22 Sur 0 -- -- 57
2019-09-02 22:00:00 24.5 9 Sur 19 Sudoeste 0 -- -- 50
2019-09-02 21:00:00 26.6 12 Sudoeste 29 Sur 0 -- -- 44
2019-09-02 20:00:00 28.1 21 Sur 41 Sur 0 -- -- 39
2019-09-02 19:00:00 29.3 28 Sur 48 Sur 0 -- -- 38
2019-09-02 18:00:00 30 33 Sur 54 Sur 0 -- -- 37
2019-09-02 17:00:00 30.9 34 Sur 51 Sur 0 -- -- 35
2019-09-02 16:00:00 31.7 36 Sur 53 Sur 0 -- -- 30
2019-09-02 15:00:00 31.9 32 Sur 44 Sur 0 -- -- 32
2019-09-02 14:00:00 31.9 30 Sur 45 Sur 0 -- -- 34
2019-09-02 13:00:00 32.7 22 Sur 36 Sur 0 -- -- 29
2019-09-02 12:00:00 31.1 13 Sur 22 Sur 0 -- -- 31
2019-09-02 11:00:00 26.7 4 Sur 7 Noroeste 0 -- -- 43
2019-09-02 10:00:00 22.9 3 Noroeste 6 Sudoeste 0 -- -- 50
2019-09-02 09:00:00 19.2 4 Sudoeste 6 Sudoeste 0 -- -- 62
2019-09-02 08:00:00 17.6 3 Sur 6 Sudeste 0 -- -- 65
2019-09-02 07:00:00 18.3 2 Noroeste 6 Sudeste 0 -- -- 59
2019-09-02 06:00:00 19.6 0 Calma 5 Oeste 0 -- -- 58
2019-09-02 05:00:00 19.6 5 Oeste 6 Oeste 0 -- -- 57
2019-09-02 04:00:00 21.1 2 Nordeste 5 Este 0 -- -- 50
2019-09-02 03:00:00 22.4 0 Calma 5 Sudeste 0 -- -- 52
2019-09-02 02:00:00 23.3 4 Sur 6 Norte 0 -- -- 46
2019-09-02 01:00:00 23.9 0 Calma 5 Sudoeste 0 -- -- 46
2019-09-02 00:00:00 25 2 Sudeste 9 Sur 0 -- -- 43
2019-09-01 23:00:00 25.9 8 Sur 10 Sur 0 -- -- 39
2019-09-01 22:00:00 27.3 9 Sur 17 Sur 0 -- -- 37
2019-09-01 21:00:00 29.1 13 Sur 28 Sudoeste 0 -- -- 34
2019-09-01 20:00:00 31.4 18 Sur 31 Sur 0 -- -- 32
2019-09-01 19:00:00 33.2 24 Sur 33 Sur 0 -- -- 27
2019-09-01 18:00:00 34.8 22 Sur 34 Sur 0 -- -- 25
2019-09-01 17:00:00 36 13 Sur 24 Sur 0 -- -- 23
2019-09-01 16:00:00 36 10 Sur 26 Sudoeste 0 -- -- 23
2019-09-01 15:00:00 35.1 8 Sudoeste 25 Sur 0 -- -- 25
2019-09-01 14:00:00 34.2 8 Sur 17 Sudoeste 0 -- -- 27
2019-09-01 13:00:00 32.1 7 Sudoeste 13 Sudoeste 0 -- -- 33
2019-09-01 12:00:00 28.9 5 Sudoeste 9 Sur 0 -- -- 38
2019-09-01 11:00:00 25.8 5 Sudoeste 8 Sudoeste 0 -- -- 45
2019-09-01 10:00:00 23.2 2 Sudeste 5 Sur 0 -- -- 53
2019-09-01 09:00:00 20.1 2 Sudeste 11 Norte 0 -- -- 65
2019-09-01 08:00:00 18.2 0 Calma 6 Sur 0 -- -- 70
2019-09-01 07:00:00 18.6 2 Sur 5 Sur 0 -- -- 67
2019-09-01 06:00:00 19.2 0 Calma 3 Sudeste 0 -- -- 63
2019-09-01 05:00:00 19.8 0 Calma 6 Oeste 0 -- -- 61
2019-09-01 04:00:00 20.2 3 Sur 8 Sur 0 -- -- 63
2019-09-01 03:00:00 21.2 2 Sur 5 Norte 0 -- -- 57
2019-09-01 02:00:00 22.4 3 Sur 5 Sur 0 -- -- 53
2019-09-01 01:00:00 23.1 0 Calma 4 Sur 0 -- -- 50
2019-09-01 00:00:00 23.9 3 Sudoeste 11 Sudoeste 0 -- -- 49
2019-08-31 23:00:00 25.3 8 Sudoeste 16 Sudoeste 0 -- -- 47
2019-08-31 22:00:00 26.8 10 Sur 22 Sur 0 -- -- 40
2019-08-31 21:00:00 28.6 14 Sur 30 Sur 0 -- -- 36
2019-08-31 20:00:00 31 21 Sur 30 Sur 0 -- -- 33
2019-08-31 19:00:00 33.4 16 Sur 24 Sur 0 -- -- 29
2019-08-31 18:00:00 34 16 Sudeste 26 Sur 0 -- -- 28
2019-08-31 17:00:00 34.6 11 Sur 22 Sudoeste 0 -- -- 26
2019-08-31 16:00:00 34.2 10 Sudeste 28 Sur 0 -- -- 27
2019-08-31 15:00:00 33.7 7 Sudeste 23 Sur 0 -- -- 27
2019-08-31 14:00:00 32.9 11 Sur 27 Sur 0 -- -- 29
2019-08-31 13:00:00 31.9 13 Sur 26 Sudeste 0 -- -- 31
2019-08-31 12:00:00 29.9 16 Sur 31 Sur 0 -- -- 34
2019-08-31 11:00:00 27.8 19 Sur 26 Sur 0 -- -- 37
2019-08-31 10:00:00 24.1 6 Sudoeste 8 Sudoeste 0 -- -- 51
2019-08-31 09:00:00 20.8 4 Sudoeste 11 Sudoeste 0 -- -- 62
2019-08-31 08:00:00 19.9 6 Sudoeste 14 Sudoeste 0 -- -- 62
2019-08-31 07:00:00 19.8 8 Sur 14 Sur 0 -- -- 60
2019-08-31 06:00:00 19.2 5 Sur 11 Sudoeste 0 -- -- 63
2019-08-31 05:00:00 19.9 3 Sur 13 Sudoeste 0 -- -- 60
2019-08-31 04:00:00 20.6 8 Sudoeste 12 Sudoeste 0 -- -- 55
2019-08-31 03:00:00 20.3 8 Sur 13 Oeste 0 -- -- 57
2019-08-31 02:00:00 21.5 7 Noroeste 17 Nordeste 0 -- -- 51
2019-08-31 01:00:00 22.3 10 Nordeste 17 Sudoeste 0 -- -- 50
2019-08-31 00:00:00 23.6 5 Sudoeste 12 Sudoeste 0 -- -- 52
2019-08-30 23:00:00 25 8 Sudoeste 22 Sur 0 -- -- 44
2019-08-30 22:00:00 26.3 12 Sur 27 Sur 0 -- -- 36
2019-08-30 21:00:00 27.8 19 Sur 32 Sur 0 -- -- 34
2019-08-30 20:00:00 29.7 24 Sur 36 Sur 0 -- -- 32
2019-08-30 19:00:00 31.3 27 Sur 42 Sur 0 -- -- 29
2019-08-30 18:00:00 32.6 28 Sur 40 Sur 0 -- -- 26
2019-08-30 17:00:00 32.9 30 Sur 39 Sur 0 -- -- 25
2019-08-30 16:00:00 32.8 27 Sur 45 Sur 0 -- -- 26
2019-08-30 15:00:00 32.8 27 Sur 39 Sur 0 -- -- 26
2019-08-30 14:00:00 32.4 24 Sur 43 Sur 0 -- -- 28
2019-08-30 13:00:00 31.5 22 Sur 33 Sudeste 0 -- -- 33
2019-08-30 12:00:00 30.2 18 Sur 27 Sur 0 -- -- 35
2019-08-30 11:00:00 27.5 8 Sur 14 Sur 0 -- -- 41
2019-08-30 10:00:00 23.9 3 Sur 5 Nordeste 0 -- -- 53
2019-08-30 09:00:00 20.3 0 Calma 6 Nordeste 0 -- -- 63
2019-08-30 08:00:00 17.5 3 Oeste 6 Sur 0 -- -- 71
2019-08-30 07:00:00 18.7 3 Noroeste 8 Noroeste 0 -- -- 67
2019-08-30 06:00:00 19.8 3 Sudoeste 7 Sudoeste 0 -- -- 65
2019-08-30 05:00:00 20.5 3 Oeste 11 Sudoeste 0 -- -- 64
2019-08-30 04:00:00 20.7 4 Sudoeste 11 Sudoeste 0 -- -- 64
2019-08-30 03:00:00 20.8 4 Sur 10 Sudoeste 0 -- -- 63
2019-08-30 02:00:00 21.2 3 Sur 16 Sudoeste 0 -- -- 63
2019-08-30 01:00:00 22.2 11 Sudoeste 18 Sudoeste 0 -- -- 57
2019-08-30 00:00:00 23.5 8 Sudoeste 24 Sur 0 -- -- 51
2019-08-29 23:00:00 24.2 14 Sur 21 Sur 0 -- -- 45
2019-08-29 22:00:00 24.6 11 Sur 33 Sur 0 -- -- 47
2019-08-29 21:00:00 26 17 Sur 38 Sur 0 -- -- 42
2019-08-29 20:00:00 28 26 Sur 42 Sur 0 -- -- 37
2019-08-29 19:00:00 29.9 26 Sur 50 Sur 0 -- -- 35
2019-08-29 18:00:00 31 34 Sur 48 Sur 0 -- -- 31
2019-08-29 17:00:00 31.4 27 Sur 40 Sur 0 -- -- 33
2019-08-29 16:00:00 31.5 27 Sur 45 Sur 0 -- -- 35
2019-08-29 15:00:00 31.2 30 Sur 42 Sur 0 -- -- 36
2019-08-29 14:00:00 30.2 24 Sur 39 Sur 0 -- -- 36
2019-08-29 13:00:00 30.9 26 Sur 40 Sur 0 -- -- 32
2019-08-29 12:00:00 29.4 26 Sur 39 Sur 0 -- -- 34
2019-08-29 11:00:00 27.8 18 Sur 30 Sur 0 -- -- 37
2019-08-29 10:00:00 24.5 16 Sur 21 Sudeste 0 -- -- 44
2019-08-29 09:00:00 23.1 13 Sur 23 Sur 0 -- -- 45
2019-08-29 08:00:00 22.2 16 Sur 22 Sur 0 -- -- 47
2019-08-29 07:00:00 21.4 6 Sudoeste 10 Sur 0 -- -- 49
2019-08-29 06:00:00 21.3 2 Sudoeste 10 Sur 0 -- -- 45
2019-08-29 05:00:00 23 9 Sudoeste 21 Sur 0 -- -- 40
2019-08-29 04:00:00 22.3 7 Sudoeste 17 Oeste 0 -- -- 39
2019-08-29 03:00:00 21.4 4 Sur 10 Sudoeste 0 -- -- 47
2019-08-29 02:00:00 22.2 5 Oeste 17 Sudoeste 0 -- -- 40
2019-08-29 01:00:00 23.3 13 Sudoeste 24 Sudoeste 0 -- -- 45
2019-08-29 00:00:00 23.9 8 Sudoeste 13 Oeste 0 -- -- 49
2019-08-28 23:00:00 25 9 Sudoeste 15 Sudoeste 0 -- -- 48
2019-08-28 22:00:00 25.7 8 Sur 22 Sur 0 -- -- 42
2019-08-28 21:00:00 27.4 17 Sur 31 Sur 0 -- -- 36
2019-08-28 20:00:00 30 22 Sur 30 Sur 0 -- -- 33
2019-08-28 19:00:00 32.4 18 Sur 27 Sur 0 -- -- 29
2019-08-28 18:00:00 33 17 Sur 28 Sur 0 -- -- 29
2019-08-28 17:00:00 33.5 15 Sudoeste 26 Sur 0 -- -- 28
2019-08-28 16:00:00 33.5 8 Sudoeste 18 Sudoeste 0 -- -- 27
2019-08-28 15:00:00 32.1 8 Noroeste 15 Sudoeste 0 -- -- 28
2019-08-28 14:00:00 31 6 Sudoeste 12 Oeste 0 -- -- 32
2019-08-28 13:00:00 29.1 4 Oeste 10 Sudoeste 0 -- -- 39
2019-08-28 12:00:00 26.5 5 Sudoeste 10 Sudoeste 0 -- -- 51
2019-08-28 11:00:00 24.2 4 Sudoeste 7 Sudoeste 0 -- -- 55
2019-08-28 10:00:00 21.3 3 Sur 5 Sudeste 0 -- -- 69
2019-08-28 09:00:00 18.2 2 Norte 8 Sudoeste 0 -- -- 81
2019-08-28 08:00:00 16.6 5 Sur 8 Sur 0 -- -- 83
2019-08-28 07:00:00 16.8 5 Sur 10 Sur 0 -- -- 82
2019-08-28 06:00:00 17 8 Sur 11 Sur 0 -- -- 81
2019-08-28 05:00:00 18 0 Calma 4 Sudoeste 0 -- -- 85
2019-08-28 04:00:00 18.4 0 Calma 5 Sudoeste 0 -- -- 82
2019-08-28 03:00:00 19.6 4 Norte 9 Nordeste 0 -- -- 76
2019-08-28 02:00:00 20.1 8 Nordeste 12 Norte 0 -- -- 76
2019-08-28 01:00:00 20.8 8 Nordeste 12 Norte 0 -- -- 72
2019-08-28 00:00:00 21.2 6 Norte 9 Norte 0 -- -- 63
2019-08-27 23:00:00 23.1 0 Calma 6 Nordeste 0 -- -- 62
2019-08-27 22:00:00 24.4 3 Noroeste 8 Norte 0 -- -- 54
2019-08-27 21:00:00 26.4 7 Norte 12 Noroeste 0 -- -- 47
2019-08-27 20:00:00 28.4 10 Noroeste 18 Noroeste 0 -- -- 35
2019-08-27 19:00:00 29.2 6 Oeste 21 Noroeste 0 -- -- 36
2019-08-27 18:00:00 29.1 9 Noroeste 21 Oeste 0 -- -- 37
2019-08-27 17:00:00 28.3 9 Oeste 20 Oeste 0 -- -- 40
2019-08-27 16:00:00 27.8 10 Noroeste 23 Noroeste 0 -- -- 39
2019-08-27 15:00:00 26.7 7 Noroeste 15 Noroeste 0 -- -- 56
2019-08-27 14:00:00 25.3 5 Noroeste 17 Noroeste 0 -- -- 65
2019-08-27 13:00:00 23.6 8 Noroeste 15 Noroeste 0 -- -- 70
2019-08-27 12:00:00 22.5 9 Noroeste 13 Norte 0 -- -- 76
2019-08-27 11:00:00 21.8 6 Norte 11 Nordeste 0 -- -- 77
2019-08-27 10:00:00 20.3 4 Norte 9 Norte 0 -- -- 83
2019-08-27 09:00:00 18.5 7 Norte 12 Norte 0 -- -- 92
2019-08-27 08:00:00 17.8 5 Nordeste 10 Norte 0 -- -- 92
2019-08-27 07:00:00 18.3 4 Norte 8 Norte 0 -- -- 91
2019-08-27 06:00:00 18.3 6 Noroeste 11 Norte 0 -- -- 91
2019-08-27 05:00:00 18.2 5 Nordeste 14 Norte 0 -- -- 91
2019-08-27 04:00:00 18.7 8 Norte 10 Norte 0 -- -- 91
2019-08-27 03:00:00 18.9 4 Nordeste 14 Norte 0 -- -- 91
2019-08-27 02:00:00 19.4 6 Norte 10 Oeste 0 -- -- 89
2019-08-27 01:00:00 20.5 5 Sudoeste 8 Sudoeste 0 -- -- 87
2019-08-27 00:00:00 20.7 5 Sudoeste 12 Noroeste 0 -- -- 87
2019-08-26 23:00:00 20.6 11 Noroeste 16 Oeste 0.2 -- -- 86
2019-08-26 22:00:00 21 6 Sur 33 Oeste 9 -- -- 85
2019-08-26 21:00:00 23.2 5 Oeste 52 Sur 1 -- -- 75
2019-08-26 20:00:00 25.2 29 Sur 48 Sudeste 0 -- -- 60
2019-08-26 19:00:00 26.7 30 Sur 49 Sur 0 -- -- 54
2019-08-26 18:00:00 28.4 32 Sur 44 Sur 0 -- -- 48
2019-08-26 17:00:00 29.2 26 Sur 42 Sur 0 -- -- 45
2019-08-26 16:00:00 28.7 25 Sur 41 Sudeste 0 -- -- 47
2019-08-26 15:00:00 28.5 26 Sur 45 Sur 0 -- -- 48
2019-08-26 14:00:00 27.4 28 Sur 44 Sur 0 -- -- 52
2019-08-26 13:00:00 26.2 26 Sur 36 Sur 0 -- -- 57
2019-08-26 12:00:00 26 27 Sur 46 Sur 0 -- -- 59
2019-08-26 11:00:00 25.3 28 Sur 43 Sur 0 -- -- 62
2019-08-26 10:00:00 24.2 23 Sur 35 Sudeste 0 -- -- 69
2019-08-26 09:00:00 22.6 26 Sur 40 Sur 0 -- -- 74
2019-08-26 08:00:00 22.1 21 Sur 33 Sur 0 -- -- 75
2019-08-26 07:00:00 22 11 Sur 37 Sur 0 -- -- 76
2019-08-26 06:00:00 22 15 Sur 46 Sur 0 -- -- 77
2019-08-26 05:00:00 22.4 13 Sudeste 25 Sur 0 -- -- 75
2019-08-26 04:00:00 22.5 10 Sur 28 Sur 0 -- -- 76
2019-08-26 03:00:00 22.6 17 Sur 33 Sur 0 -- -- 76
2019-08-26 02:00:00 22.5 23 Sur 45 Sur 0 -- -- 73
2019-08-26 01:00:00 22.2 23 Sur 47 Sur 0 -- -- 70
2019-08-26 00:00:00 22.5 17 Sur 49 Sudeste 0 -- -- 70
2019-08-25 23:00:00 22.5 23 Sur 44 Sur 0 -- -- 68
2019-08-25 22:00:00 22.7 25 Sur 45 Sur 0 -- -- 68
2019-08-25 21:00:00 23.4 30 Sur 49 Sur 0 -- -- 65
2019-08-25 20:00:00 25.3 26 Sur 42 Sur 0 -- -- 58
2019-08-25 19:00:00 26.8 32 Sur 47 Sur 0 -- -- 52
2019-08-25 18:00:00 27.6 31 Sur 47 Sur 0 -- -- 52
2019-08-25 17:00:00 28.3 34 Sur 47 Sur 0 -- -- 50
2019-08-25 16:00:00 28.8 34 Sur 50 Sur 0 -- -- 46
2019-08-25 15:00:00 28.7 31 Sur 46 Sur 0 -- -- 47
2019-08-25 14:00:00 28.4 31 Sur 45 Sur 0 -- -- 49
2019-08-25 13:00:00 28 30 Sur 44 Sur 0 -- -- 51
2019-08-25 12:00:00 26.9 28 Sur 40 Sur 0 -- -- 55
2019-08-25 11:00:00 25.1 22 Sur 36 Sur 0 -- -- 64
2019-08-25 10:00:00 23.8 22 Sur 32 Sur 0 -- -- 68
2019-08-25 09:00:00 21.8 21 Sur 33 Sur 0 -- -- 79
2019-08-25 08:00:00 20.8 21 Sur 36 Sur 0 -- -- 82
2019-08-25 07:00:00 21 23 Sur 37 Sur 0 -- -- 79
2019-08-25 06:00:00 20.9 19 Sur 35 Sur 0 -- -- 78
2019-08-25 05:00:00 21 14 Sur 26 Sur 0 -- -- 77
2019-08-25 04:00:00 21.4 19 Sur 32 Sur 0 -- -- 72
2019-08-25 03:00:00 21.6 13 Sur 22 Sudoeste 0 -- -- 64
2019-08-25 02:00:00 22.4 12 Sudoeste 21 Sur 0 -- -- 60
2019-08-25 01:00:00 22.7 9 Sudoeste 39 Sur 0 -- -- 57
2019-08-25 00:00:00 22.9 25 Sur 39 Sur 0 -- -- 67
2019-08-24 23:00:00 23 16 Sur 27 Sur 0 -- -- 67
2019-08-24 22:00:00 23.8 12 Sur 29 Sur 0 -- -- 60
2019-08-24 21:00:00 25.3 19 Sur 30 Sur 0 -- -- 51
2019-08-24 20:00:00 27.9 21 Sur 35 Sur 0 -- -- 41
2019-08-24 19:00:00 29.3 24 Sur 38 Sur 0 -- -- 36
2019-08-24 18:00:00 30.1 25 Sur 38 Sur 0 -- -- 40
2019-08-24 17:00:00 30.5 28 Sur 41 Sur 0 -- -- 41
2019-08-24 16:00:00 30.6 25 Sur 41 Sur 0 -- -- 41
2019-08-24 15:00:00 30.2 27 Sur 40 Sur 0 -- -- 45
2019-08-24 14:00:00 29.8 22 Sur 40 Sur 0 -- -- 43
2019-08-24 13:00:00 28.3 25 Sur 36 Sur 0 -- -- 48
2019-08-24 12:00:00 27.1 23 Sur 35 Sur 0 -- -- 53
2019-08-24 11:00:00 25.6 21 Sur 30 Sur 0 -- -- 56
2019-08-24 10:00:00 24.1 17 Sur 27 Sur 0 -- -- 59
2019-08-24 09:00:00 22.3 18 Sur 27 Sur 0 -- -- 65
2019-08-24 08:00:00 19.7 3 Sudoeste 10 Sur 0 -- -- 69
2019-08-24 07:00:00 19.6 4 Sudoeste 15 Sur 0 -- -- 70
2019-08-24 06:00:00 20.2 10 Sur 18 Sur 0 -- -- 67
2019-08-24 05:00:00 20.8 12 Sur 18 Sur 0 -- -- 67
2019-08-24 04:00:00 21.2 9 Sur 23 Sur 0 -- -- 64
2019-08-24 03:00:00 21.6 12 Sur 25 Sudeste 0 -- -- 63
2019-08-24 02:00:00 21.9 19 Sur 35 Sur 0 -- -- 61
2019-08-24 01:00:00 21.9 23 Sur 38 Sur 0 -- -- 63
2019-08-24 00:00:00 22 22 Sur 41 Sur 0 -- -- 59
2019-08-23 23:00:00 22.5 27 Sur 44 Sur 0 -- -- 59
2019-08-23 22:00:00 23 24 Sur 39 Sur 0 -- -- 54
2019-08-23 21:00:00 24.2 27 Sur 42 Sur 0 -- -- 48
2019-08-23 20:00:00 26.3 28 Sur 44 Sur 0 -- -- 41
2019-08-23 19:00:00 27.8 30 Sur 44 Sur 0 -- -- 39
2019-08-23 18:00:00 29.4 30 Sur 49 Sur 0 -- -- 35
2019-08-23 17:00:00 30.1 32 Sur 49 Sur 0 -- -- 31
2019-08-23 16:00:00 30.4 33 Sur 48 Sur 0 -- -- 31
2019-08-23 15:00:00 30.7 31 Sur 47 Sur 0 -- -- 31
2019-08-23 14:00:00 30.3 31 Sur 46 Sur 0 -- -- 31
2019-08-23 13:00:00 29.4 27 Sur 42 Sur 0 -- -- 35
2019-08-23 12:00:00 27.6 27 Sur 42 Sur 0 -- -- 41
2019-08-23 11:00:00 25.1 27 Sur 37 Sur 0 -- -- 55
2019-08-23 10:00:00 23.3 22 Sur 33 Sur 0 -- -- 66
2019-08-23 09:00:00 21.4 20 Sur 30 Sur 0 -- -- 76
2019-08-23 08:00:00 20.2 18 Sur 34 Sur 0 -- -- 81
2019-08-23 07:00:00 20.4 22 Sur 38 Sur 0 -- -- 80
2019-08-23 06:00:00 20.7 28 Sur 42 Sur 0 -- -- 79
2019-08-23 05:00:00 21 29 Sur 41 Sur 0 -- -- 79
2019-08-23 04:00:00 21.2 22 Sur 37 Sudeste 0 -- -- 77
2019-08-23 03:00:00 21.8 22 Sur 35 Sur 0 -- -- 77
2019-08-23 02:00:00 22.4 21 Sur 40 Sur 0 -- -- 75
2019-08-23 01:00:00 22.4 21 Sur 43 Sur 0 -- -- 77
2019-08-23 00:00:00 22.6 16 Sur 31 Sur 0 -- -- 76
2019-08-22 23:00:00 22.7 18 Sur 33 Sudoeste 0 -- -- 75
2019-08-22 22:00:00 23.3 24 Sur 39 Sur 0 -- -- 72
2019-08-22 21:00:00 24.1 27 Sur 48 Sur 0 -- -- 67
2019-08-22 20:00:00 25.5 31 Sur 45 Sur 0 -- -- 61
2019-08-22 19:00:00 27 27 Sur 45 Sur 0 -- -- 57
2019-08-22 18:00:00 27.9 29 Sur 46 Sur 0 -- -- 54
2019-08-22 17:00:00 28.7 32 Sur 49 Sur 0 -- -- 48
2019-08-22 16:00:00 29.6 30 Sur 47 Sur 0 -- -- 46
2019-08-22 15:00:00 29.8 27 Sur 44 Sur 0 -- -- 44
2019-08-22 14:00:00 29.2 24 Sur 40 Sur 0 -- -- 45
2019-08-22 13:00:00 28 24 Sur 39 Sur 0 -- -- 51
2019-08-22 12:00:00 26.3 24 Sur 36 Sur 0 -- -- 57
2019-08-22 11:00:00 25.3 23 Sur 34 Sur 0 -- -- 61
2019-08-22 10:00:00 24.2 21 Sur 35 Sur 0 -- -- 68
2019-08-22 09:00:00 22.5 18 Sur 28 Sur 0 -- -- 78
2019-08-22 08:00:00 21.3 20 Sur 29 Sur 0 -- -- 82
2019-08-22 07:00:00 21.4 16 Sur 32 Sur 0 -- -- 82
2019-08-22 06:00:00 21.8 17 Sur 24 Sur 0 -- -- 81
2019-08-22 05:00:00 21.8 21 Sur 35 Sur 0 -- -- 81
2019-08-22 04:00:00 22 19 Sur 30 Sur 0 -- -- 81
2019-08-22 03:00:00 22.3 18 Sur 38 Sur 0 -- -- 79
2019-08-22 02:00:00 22.5 24 Sur 36 Sur 0 -- -- 78
2019-08-22 01:00:00 22.7 22 Sur 39 Sur 0 -- -- 77
2019-08-22 00:00:00 22.8 22 Sur 35 Sur 0 -- -- 74
2019-08-21 23:00:00 23.2 19 Sur 33 Sur 0 -- -- 70
2019-08-21 22:00:00 23.8 19 Sur 33 Sur 0 -- -- 66
2019-08-21 21:00:00 25.5 19 Sur 37 Sur 0 -- -- 60
2019-08-21 20:00:00 27.3 28 Sur 38 Sur 0 -- -- 54
2019-08-21 19:00:00 28.9 28 Sur 37 Sur 0 -- -- 48
2019-08-21 18:00:00 29.9 23 Sur 41 Sur 0 -- -- 45
2019-08-21 17:00:00 30.3 27 Sur 40 Sur 0 -- -- 43
2019-08-21 16:00:00 30.9 22 Sur 38 Sur 0 -- -- 44
2019-08-21 15:00:00 30.4 26 Sur 40 Sur 0 -- -- 45
2019-08-21 14:00:00 30.5 28 Sur 43 Sur 0 -- -- 46
2019-08-21 13:00:00 29 26 Sur 39 Sur 0 -- -- 50
2019-08-21 12:00:00 28.2 22 Sur 38 Sudeste 0 -- -- 55
2019-08-21 11:00:00 26.7 28 Sur 38 Sur 0 -- -- 62
2019-08-21 10:00:00 25.2 23 Sur 36 Sur 0 -- -- 70
2019-08-21 09:00:00 23.9 21 Sur 30 Sur 0 -- -- 76
2019-08-21 08:00:00 22.9 16 Sur 30 Sur 0 -- -- 79
2019-08-21 07:00:00 23 19 Sur 37 Sur 0 -- -- 78
2019-08-21 06:00:00 23.1 18 Sur 34 Sur 0 -- -- 77
2019-08-21 05:00:00 23.1 17 Sur 32 Sur 0 -- -- 76
2019-08-21 04:00:00 23 17 Sur 31 Sur 0 -- -- 76
2019-08-21 03:00:00 23 18 Sur 34 Sur 0 -- -- 75
2019-08-21 02:00:00 23.6 21 Sur 31 Sur 0 -- -- 72
2019-08-21 01:00:00 23.9 15 Sur 27 Sur 0 -- -- 70
2019-08-21 00:00:00 24.3 14 Sur 24 Sur 0 -- -- 69